createdAt,value
2023-05-05T00:00:17.576Z,4579.00
2023-05-05T00:01:17.599Z,4578.00
2023-05-05T00:02:17.624Z,4571.00
2023-05-05T00:03:17.675Z,4563.00
2023-05-05T00:04:17.690Z,4557.00
2023-05-05T00:05:17.613Z,4554.00
2023-05-05T00:06:17.635Z,4547.00
2023-05-05T00:07:17.627Z,4536.00
2023-05-05T00:08:17.558Z,4554.00
2023-05-05T00:09:17.535Z,4529.00
2023-05-05T00:10:17.561Z,4525.00
2023-05-05T00:11:17.646Z,4529.00
2023-05-05T00:12:17.571Z,4517.00
2023-05-05T00:13:17.593Z,4528.00
2023-05-05T00:14:17.606Z,4518.00
2023-05-05T00:15:17.590Z,4514.00
2023-05-05T00:16:17.616Z,4513.00
2023-05-05T00:17:17.655Z,4498.00
2023-05-05T00:18:17.594Z,4500.00
2023-05-05T00:19:17.543Z,4505.00
2023-05-05T00:20:17.615Z,4490.00
2023-05-05T00:21:17.599Z,4488.00
2023-05-05T00:22:17.564Z,4481.00
2023-05-05T00:23:17.551Z,4475.00
2023-05-05T00:24:18.285Z,4481.00
2023-05-05T00:25:17.595Z,4462.00
2023-05-05T00:26:17.556Z,4481.00
2023-05-05T00:27:17.556Z,4485.00
2023-05-05T00:28:17.555Z,4468.00
2023-05-05T00:29:17.574Z,4461.00
2023-05-05T00:30:17.515Z,4475.00
2023-05-05T00:31:17.613Z,4463.00
2023-05-05T00:32:17.515Z,4457.00
2023-05-05T00:33:17.533Z,4452.00
2023-05-05T00:34:17.530Z,4455.00
2023-05-05T00:35:17.550Z,4454.00
2023-05-05T00:36:17.529Z,4446.00
2023-05-05T00:37:17.520Z,4440.00
2023-05-05T00:38:17.525Z,4439.00
2023-05-05T00:39:17.564Z,4429.00
2023-05-05T00:40:17.501Z,4451.00
2023-05-05T00:41:17.548Z,4440.00
2023-05-05T00:42:17.508Z,4422.00
2023-05-05T00:43:17.484Z,4437.00
2023-05-05T00:44:17.504Z,4419.00
2023-05-05T00:45:17.502Z,4413.00
2023-05-05T00:46:17.493Z,4405.00
2023-05-05T00:47:17.486Z,4398.00
2023-05-05T00:48:17.474Z,4413.00
2023-05-05T00:49:17.552Z,4405.00
2023-05-05T00:50:17.512Z,4400.00
2023-05-05T00:51:17.516Z,4413.00
2023-05-05T00:52:17.498Z,4394.00
2023-05-05T00:53:17.457Z,4392.00
2023-05-05T00:54:17.470Z,4401.00
2023-05-05T00:55:17.449Z,4379.00
2023-05-05T00:56:17.419Z,4372.00
2023-05-05T00:57:17.458Z,4390.00
2023-05-05T00:58:17.478Z,4378.00
2023-05-05T00:59:17.393Z,4382.00
2023-05-05T01:00:17.483Z,4354.00
2023-05-05T01:01:17.635Z,4371.00
2023-05-05T01:02:17.448Z,4368.00
2023-05-05T01:03:17.481Z,4342.00
2023-05-05T01:04:17.413Z,4357.00
2023-05-05T01:05:17.413Z,4344.00
2023-05-05T01:06:17.418Z,4342.00
2023-05-05T01:07:17.405Z,4340.00
2023-05-05T01:08:17.485Z,4345.00
2023-05-05T01:09:17.386Z,4340.00
2023-05-05T01:10:20.387Z,4334.00
2023-05-05T01:11:17.373Z,4349.00
2023-05-05T01:12:17.373Z,4333.00
2023-05-05T01:13:17.393Z,4338.00
2023-05-05T01:14:17.407Z,4328.00
2023-05-05T01:15:17.377Z,4327.00
2023-05-05T01:16:17.456Z,4330.00
2023-05-05T01:17:17.324Z,4306.00
2023-05-05T01:18:17.385Z,4321.00
2023-05-05T01:19:17.359Z,4309.00
2023-05-05T01:20:17.346Z,4314.00
2023-05-05T01:21:17.310Z,4303.00
2023-05-05T01:22:17.313Z,4301.00
2023-05-05T01:23:17.345Z,4301.00
2023-05-05T01:24:17.328Z,4297.00
2023-05-05T01:25:17.293Z,4296.00
2023-05-05T01:26:17.281Z,4278.00
2023-05-05T01:27:17.275Z,4288.00
2023-05-05T01:28:17.284Z,4293.00
2023-05-05T01:29:17.265Z,4277.00
2023-05-05T01:30:17.296Z,4286.00
2023-05-05T01:31:17.282Z,4259.00
2023-05-05T01:32:17.291Z,4265.00
2023-05-05T01:33:17.240Z,4256.00
2023-05-05T01:34:17.244Z,4247.00
2023-05-05T01:35:17.266Z,4255.00
2023-05-05T01:36:17.240Z,4265.00
2023-05-05T01:37:17.197Z,4239.00
2023-05-05T01:38:17.239Z,4257.00
2023-05-05T01:39:17.230Z,4249.00
2023-05-05T01:40:17.183Z,4234.00
2023-05-05T01:41:17.258Z,4240.00
2023-05-05T01:42:17.167Z,4233.00
2023-05-05T01:43:17.191Z,4221.00
2023-05-05T01:44:17.158Z,4239.00
2023-05-05T01:45:17.158Z,4224.00
2023-05-05T01:46:17.281Z,4226.00
2023-05-05T01:47:17.186Z,4223.00
2023-05-05T01:48:17.130Z,4225.00
2023-05-05T01:49:17.155Z,4214.00
2023-05-05T01:50:17.146Z,4207.00
2023-05-05T01:51:17.124Z,4224.00
2023-05-05T01:52:17.159Z,4196.00
2023-05-05T01:53:17.117Z,4201.00
2023-05-05T01:54:17.115Z,4209.00
2023-05-05T01:55:17.076Z,4187.00
2023-05-05T01:56:17.167Z,4193.00
2023-05-05T01:57:17.085Z,4185.00
2023-05-05T01:58:17.071Z,4180.00
2023-05-05T01:59:17.102Z,4188.00
2023-05-05T02:00:17.102Z,4186.00
2023-05-05T02:01:17.090Z,4176.00
2023-05-05T02:02:17.116Z,4185.00
2023-05-05T02:03:17.191Z,4186.00
2023-05-05T02:04:17.032Z,4173.00
2023-05-05T02:05:17.024Z,4170.00
2023-05-05T02:06:17.047Z,4167.00
2023-05-05T02:07:17.040Z,4148.00
2023-05-05T02:08:17.010Z,4166.00
2023-05-05T02:09:16.976Z,4165.00
2023-05-05T02:10:17.007Z,4159.00
2023-05-05T02:11:16.983Z,4147.00
2023-05-05T02:12:16.998Z,4146.00
2023-05-05T02:13:17.137Z,4144.00
2023-05-05T02:14:17.002Z,4137.00
2023-05-05T02:15:16.939Z,4145.00
2023-05-05T02:16:17.174Z,4127.00
2023-05-05T02:17:16.987Z,4143.00
2023-05-05T02:18:16.940Z,4135.00
2023-05-05T02:19:17.002Z,4135.00
2023-05-05T02:20:16.916Z,4121.00
2023-05-05T02:21:16.932Z,4128.00
2023-05-05T02:22:16.928Z,4119.00
2023-05-05T02:23:16.913Z,4119.00
2023-05-05T02:24:16.888Z,4121.00
2023-05-05T02:25:16.882Z,4106.00
2023-05-05T02:26:16.950Z,4112.00
2023-05-05T02:27:16.899Z,4114.00
2023-05-05T02:28:16.901Z,4106.00
2023-05-05T02:29:16.896Z,4107.00
2023-05-05T02:30:16.888Z,4104.00
2023-05-05T02:31:16.877Z,4103.00
2023-05-05T02:32:16.878Z,4086.00
2023-05-05T02:33:16.892Z,4093.00
2023-05-05T02:34:16.824Z,4093.00
2023-05-05T02:35:16.831Z,4086.00
2023-05-05T02:36:16.831Z,4088.00
2023-05-05T02:37:16.827Z,4088.00
2023-05-05T02:38:16.813Z,4081.00
2023-05-05T02:39:16.842Z,4070.00
2023-05-05T02:40:16.781Z,4060.00
2023-05-05T02:41:16.808Z,4066.00
2023-05-05T02:42:16.773Z,4058.00
2023-05-05T02:43:16.902Z,4054.00
2023-05-05T02:44:16.753Z,4054.00
2023-05-05T02:45:16.808Z,4047.00
2023-05-05T02:46:16.760Z,4063.00
2023-05-05T02:47:16.900Z,4053.00
2023-05-05T02:48:16.796Z,4039.00
2023-05-05T02:49:16.786Z,4052.00
2023-05-05T02:50:16.727Z,4046.00
2023-05-05T02:51:16.721Z,4025.00
2023-05-05T02:52:16.824Z,4025.00
2023-05-05T02:53:16.704Z,4020.00
2023-05-05T02:54:16.723Z,4028.00
2023-05-05T02:55:16.737Z,4036.00
2023-05-05T02:56:16.675Z,4012.00
2023-05-05T02:57:16.677Z,4028.00
2023-05-05T02:58:16.654Z,4019.00
2023-05-05T02:59:16.698Z,3997.00
2023-05-05T03:00:16.651Z,4006.00
2023-05-05T03:01:16.682Z,4009.00
2023-05-05T03:02:16.656Z,4000.00
2023-05-05T03:03:16.768Z,4021.00
2023-05-05T03:04:16.640Z,4000.00
2023-05-05T03:05:16.614Z,4005.00
2023-05-05T03:06:16.648Z,3996.00
2023-05-05T03:07:16.611Z,3995.00
2023-05-05T03:08:16.656Z,4001.00
2023-05-05T03:09:16.614Z,4008.00
2023-05-05T03:10:16.575Z,3999.00
2023-05-05T03:11:16.568Z,3990.00
2023-05-05T03:12:16.542Z,3978.00
2023-05-05T03:13:16.565Z,3981.00
2023-05-05T03:14:16.565Z,3957.00
2023-05-05T03:15:16.547Z,3966.00
2023-05-05T03:16:16.612Z,3969.00
2023-05-05T03:17:16.513Z,3977.00
2023-05-05T03:18:16.524Z,3963.00
2023-05-05T03:19:16.536Z,3961.00
2023-05-05T03:20:16.509Z,3948.00
2023-05-05T03:21:16.525Z,3961.00
2023-05-05T03:22:16.646Z,3944.00
2023-05-05T03:23:16.552Z,3949.00
2023-05-05T03:24:16.484Z,3951.00
2023-05-05T03:25:16.523Z,3955.00
2023-05-05T03:26:16.541Z,3934.00
2023-05-05T03:27:16.616Z,3942.00
2023-05-05T03:28:16.552Z,3947.00
2023-05-05T03:29:16.465Z,3937.00
2023-05-05T03:30:16.431Z,3937.00
2023-05-05T03:31:16.515Z,3935.00
2023-05-05T03:32:16.484Z,3922.00
2023-05-05T03:33:16.434Z,3930.00
2023-05-05T03:34:16.474Z,3925.00
2023-05-05T03:35:16.399Z,3926.00
2023-05-05T03:36:16.422Z,3928.00
2023-05-05T03:37:16.399Z,3913.00
2023-05-05T03:38:16.380Z,3918.00
2023-05-05T03:39:16.419Z,3912.00
2023-05-05T03:40:16.355Z,3915.00
2023-05-05T03:41:16.369Z,3902.00
2023-05-05T03:42:16.349Z,3903.00
2023-05-05T03:43:16.366Z,3911.00
2023-05-05T03:44:16.357Z,3901.00
2023-05-05T03:45:16.349Z,3899.00
2023-05-05T03:46:16.412Z,3899.00
2023-05-05T03:47:16.310Z,3910.00
2023-05-05T03:48:16.305Z,3883.00
2023-05-05T03:49:16.361Z,3877.00
2023-05-05T03:50:16.285Z,3881.00
2023-05-05T03:51:16.321Z,3887.00
2023-05-05T03:52:16.308Z,3883.00
2023-05-05T03:53:16.334Z,3872.00
2023-05-05T03:54:16.335Z,3874.00
2023-05-05T03:55:16.352Z,3865.00
2023-05-05T03:56:16.357Z,3868.00
2023-05-05T03:57:16.429Z,3857.00
2023-05-05T03:58:16.398Z,3861.00
2023-05-05T03:59:16.390Z,3862.00
2023-05-05T04:00:16.527Z,3855.00
2023-05-05T04:01:16.453Z,3845.00
2023-05-05T04:02:18.433Z,3850.00
2023-05-05T04:03:16.639Z,3849.00
2023-05-05T04:04:16.566Z,3806.00
2023-05-05T04:05:16.515Z,3745.00
2023-05-05T04:06:16.516Z,3705.00
2023-05-05T04:07:16.594Z,3696.00
2023-05-05T04:08:16.552Z,3649.00
2023-05-05T04:09:16.569Z,3619.00
2023-05-05T04:10:16.602Z,3594.00
2023-05-05T04:11:16.616Z,3560.00
2023-05-05T04:12:16.645Z,3545.00
2023-05-05T04:13:16.709Z,3519.00
2023-05-05T04:14:16.636Z,3511.00
2023-05-05T04:15:16.655Z,3489.00
2023-05-05T04:16:16.706Z,3455.00
2023-05-05T04:17:16.694Z,3447.00
2023-05-05T04:18:16.708Z,3449.00
2023-05-05T04:19:16.802Z,3429.00
2023-05-05T04:20:16.691Z,3422.00
2023-05-05T04:21:16.722Z,3401.00
2023-05-05T04:22:16.721Z,3398.00
2023-05-05T04:23:16.748Z,3386.00
2023-05-05T04:24:16.743Z,3364.00
2023-05-05T04:25:16.771Z,3365.00
2023-05-05T04:26:16.780Z,3357.00
2023-05-05T04:27:16.873Z,3338.00
2023-05-05T04:28:16.801Z,3316.00
2023-05-05T04:29:16.839Z,3317.00
2023-05-05T04:30:16.846Z,3322.00
2023-05-05T04:31:16.944Z,3329.00
2023-05-05T04:32:16.895Z,3379.00
2023-05-05T04:33:16.905Z,3423.00
2023-05-05T04:34:16.929Z,3428.00
2023-05-05T04:35:16.985Z,3433.00
2023-05-05T04:36:16.984Z,3452.00
2023-05-05T04:37:17.004Z,3460.00
2023-05-05T04:38:17.203Z,3460.00
2023-05-05T04:39:17.070Z,3470.00
2023-05-05T04:40:17.058Z,3472.00
2023-05-05T04:41:17.083Z,3458.00
2023-05-05T04:42:17.130Z,3460.00
2023-05-05T04:43:17.200Z,3465.00
2023-05-05T04:44:17.163Z,3472.00
2023-05-05T04:45:17.200Z,3466.00
2023-05-05T04:46:17.227Z,3473.00
2023-05-05T04:47:17.201Z,3477.00
2023-05-05T04:48:17.236Z,3488.00
2023-05-05T04:49:17.284Z,3481.00
2023-05-05T04:50:17.273Z,3501.00
2023-05-05T04:51:17.345Z,3479.00
2023-05-05T04:52:17.340Z,3490.00
2023-05-05T04:53:17.349Z,3491.00
2023-05-05T04:54:17.391Z,3500.00
2023-05-05T04:55:17.349Z,3499.00
2023-05-05T04:56:17.441Z,3499.00
2023-05-05T04:57:17.468Z,3506.00
2023-05-05T04:58:17.444Z,3512.00
2023-05-05T04:59:17.415Z,3516.00
2023-05-05T05:00:17.477Z,3512.00
2023-05-05T05:01:17.490Z,3510.00
2023-05-05T05:02:17.572Z,3499.00
2023-05-05T05:03:17.624Z,3498.00
2023-05-05T05:04:17.651Z,3481.00
2023-05-05T05:05:17.561Z,3464.00
2023-05-05T05:06:17.619Z,3491.00
2023-05-05T05:07:17.601Z,3471.00
2023-05-05T05:08:17.649Z,3471.00
2023-05-05T05:09:17.688Z,3457.00
2023-05-05T05:10:17.694Z,3451.00
2023-05-05T05:11:17.786Z,3447.00
2023-05-05T05:12:17.771Z,3421.00
2023-05-05T05:13:18.128Z,3406.00
2023-05-05T05:14:17.865Z,3404.00
2023-05-05T05:15:17.858Z,3385.00
2023-05-05T05:16:17.929Z,3389.00
2023-05-05T05:17:18.019Z,3386.00
2023-05-05T05:18:17.983Z,3387.00
2023-05-05T05:19:18.073Z,3370.00
2023-05-05T05:20:18.038Z,3364.00
2023-05-05T05:21:18.098Z,3347.00
2023-05-05T05:22:18.127Z,3364.00
2023-05-05T05:23:18.152Z,3356.00
2023-05-05T05:24:18.169Z,3338.00
2023-05-05T05:25:18.203Z,3341.00
2023-05-05T05:26:18.292Z,3346.00
2023-05-05T05:27:18.289Z,3342.00
2023-05-05T05:28:18.494Z,3360.00
2023-05-05T05:29:18.406Z,3348.00
2023-05-05T05:30:18.425Z,3346.00
2023-05-05T05:31:18.527Z,3345.00
2023-05-05T05:32:18.532Z,3344.00
2023-05-05T05:33:18.630Z,3353.00
2023-05-05T05:34:18.607Z,3400.00
2023-05-05T05:35:18.672Z,3375.00
2023-05-05T05:36:18.797Z,3378.00
2023-05-05T05:37:18.900Z,3388.00
2023-05-05T05:38:18.983Z,3405.00
2023-05-05T05:39:19.029Z,3410.00
2023-05-05T05:40:19.006Z,3410.00
2023-05-05T05:41:19.032Z,3417.00
2023-05-05T05:42:19.095Z,3430.00
2023-05-05T05:43:19.106Z,3428.00
2023-05-05T05:44:19.139Z,3408.00
2023-05-05T05:45:19.217Z,3414.00
2023-05-05T05:46:19.210Z,3416.00
2023-05-05T05:47:19.235Z,3422.00
2023-05-05T05:48:19.366Z,3400.00
2023-05-05T05:49:19.257Z,3408.00
2023-05-05T05:50:19.297Z,3421.00
2023-05-05T05:51:19.290Z,3407.00
2023-05-05T05:52:19.419Z,3364.00
2023-05-05T05:53:19.360Z,3365.00
2023-05-05T05:54:19.481Z,3397.00
2023-05-05T05:55:19.498Z,3352.00
2023-05-05T05:56:19.405Z,3334.00
2023-05-05T05:57:19.409Z,3339.00
2023-05-05T05:58:19.362Z,3358.00
2023-05-05T05:59:19.395Z,3341.00
2023-05-05T06:00:19.412Z,3325.00
2023-05-05T06:01:19.361Z,3320.00
2023-05-05T06:02:19.515Z,3332.00
2023-05-05T06:03:19.536Z,3319.00
2023-05-05T06:04:19.468Z,3312.00
2023-05-05T06:05:19.398Z,3314.00
2023-05-05T06:06:19.563Z,3310.00
2023-05-05T06:07:19.396Z,3309.00
2023-05-05T06:08:19.393Z,3320.00
2023-05-05T06:09:19.455Z,3313.00
2023-05-05T06:10:28.009Z,3320.00
2023-05-05T06:11:20.363Z,3320.00
2023-05-05T06:12:19.427Z,3321.00
2023-05-05T06:13:19.418Z,3326.00
2023-05-05T06:14:20.241Z,3321.00
2023-05-05T06:15:19.351Z,3309.00
2023-05-05T06:16:19.373Z,3314.00
2023-05-05T06:17:19.432Z,3263.00
2023-05-05T06:18:19.356Z,3246.00
2023-05-05T06:19:19.321Z,3225.00
2023-05-05T06:20:19.383Z,3228.00
2023-05-05T06:21:19.981Z,3195.00
2023-05-05T06:22:19.296Z,3286.00
2023-05-05T06:23:19.359Z,3286.00
2023-05-05T06:24:19.312Z,3200.00
2023-05-05T06:25:19.268Z,3120.00
2023-05-05T06:26:19.264Z,3230.00
2023-05-05T06:27:19.280Z,3311.00
2023-05-05T06:28:19.590Z,3346.00
2023-05-05T06:29:19.356Z,3290.00
2023-05-05T06:30:19.293Z,3309.00
2023-05-05T06:31:19.275Z,3247.00
2023-05-05T06:32:19.272Z,3160.00
2023-05-05T06:33:19.232Z,3164.00
2023-05-05T06:34:19.219Z,3213.00
2023-05-05T06:35:19.270Z,3235.00
2023-05-05T06:36:19.338Z,3223.00
2023-05-05T06:37:19.385Z,3258.00
2023-05-05T06:38:19.348Z,3243.00
2023-05-05T06:39:19.427Z,3273.00
2023-05-05T06:40:19.978Z,3279.00
2023-05-05T06:41:19.538Z,3274.00
2023-05-05T06:42:19.629Z,3306.00
2023-05-05T06:43:19.544Z,3267.00
2023-05-05T06:44:19.540Z,3261.00
2023-05-05T06:45:20.554Z,3184.00
2023-05-05T06:46:19.797Z,3165.00
2023-05-05T06:47:20.652Z,3194.00
2023-05-05T06:48:19.559Z,3208.00
2023-05-05T06:49:19.599Z,3195.00
2023-05-05T06:50:19.681Z,3208.00
2023-05-05T06:51:19.696Z,3202.00
2023-05-05T06:52:20.035Z,3162.00
2023-05-05T06:53:19.964Z,3136.00
2023-05-05T06:54:19.874Z,3116.00
2023-05-05T06:55:19.914Z,3138.00
2023-05-05T06:56:20.445Z,3088.00
2023-05-05T06:57:20.221Z,3051.00
2023-05-05T06:58:20.098Z,3078.00
2023-05-05T06:59:20.148Z,2985.00
2023-05-05T07:00:20.190Z,2970.00
2023-05-05T07:01:20.341Z,2992.00
2023-05-05T07:02:20.328Z,3012.00
2023-05-05T07:03:20.603Z,3001.00
2023-05-05T07:04:20.976Z,3018.00
2023-05-05T07:05:20.518Z,3047.00
2023-05-05T07:06:20.526Z,3041.00
2023-05-05T07:07:20.619Z,2994.00
2023-05-05T07:08:20.756Z,3003.00
2023-05-05T07:09:20.747Z,3030.00
2023-05-05T07:10:20.738Z,3047.00
2023-05-05T07:11:20.873Z,3091.00
2023-05-05T07:12:20.841Z,3068.00
2023-05-05T07:13:21.028Z,3014.00
2023-05-05T07:14:22.707Z,2969.00
2023-05-05T07:15:28.894Z,2953.00
2023-05-05T07:16:21.997Z,2882.00
2023-05-05T07:17:20.935Z,2869.00
2023-05-05T07:18:21.012Z,2861.00
2023-05-05T07:19:20.928Z,2909.00
2023-05-05T07:20:20.925Z,2905.00
2023-05-05T07:21:20.909Z,2895.00
2023-05-05T07:22:20.889Z,2901.00
2023-05-05T07:23:20.912Z,2802.00
2023-05-05T07:24:20.949Z,2711.00
2023-05-05T07:25:20.955Z,2725.00
2023-05-05T07:26:20.923Z,2679.00
2023-05-05T07:27:20.913Z,2613.00
2023-05-05T07:28:20.983Z,2603.00
2023-05-05T07:29:21.059Z,2583.00
2023-05-05T07:30:21.335Z,2501.00
2023-05-05T07:31:21.054Z,2406.00
2023-05-05T07:32:21.071Z,2291.00
2023-05-05T07:33:20.934Z,2191.00
2023-05-05T07:34:20.972Z,2178.00
2023-05-05T07:35:21.493Z,2281.00
2023-05-05T07:36:20.986Z,2342.00
2023-05-05T07:37:21.087Z,2391.00
2023-05-05T07:38:21.034Z,2469.00
2023-05-05T07:39:22.488Z,2556.00
2023-05-05T07:40:21.471Z,2566.00
2023-05-05T07:41:21.019Z,2518.00
2023-05-05T07:42:21.070Z,2552.00
2023-05-05T07:43:21.489Z,2555.00
2023-05-05T07:44:21.489Z,2574.00
2023-05-05T07:45:21.183Z,2637.00
2023-05-05T07:46:21.212Z,2624.00
2023-05-05T07:47:22.084Z,2649.00
2023-05-05T07:48:21.308Z,2652.00
2023-05-05T07:49:21.368Z,2663.00
2023-05-05T07:50:21.421Z,2654.00
2023-05-05T07:51:21.595Z,2651.00
2023-05-05T07:52:30.093Z,2654.00
2023-05-05T07:53:22.581Z,2655.00
2023-05-05T07:54:21.757Z,2656.00
2023-05-05T07:55:21.558Z,2624.00
2023-05-05T07:56:21.926Z,2551.00
2023-05-05T07:57:21.527Z,2530.00
2023-05-05T07:58:21.588Z,2505.00
2023-05-05T07:59:21.626Z,2497.00
2023-05-05T08:00:21.603Z,2498.00
2023-05-05T08:01:21.698Z,2475.00
2023-05-05T08:02:21.734Z,2477.00
2023-05-05T08:03:21.945Z,2454.00
2023-05-05T08:04:21.852Z,2412.00
2023-05-05T08:05:21.907Z,2409.00
2023-05-05T08:06:22.025Z,2390.00
2023-05-05T08:07:22.478Z,2427.00
2023-05-05T08:08:22.125Z,2428.00
2023-05-05T08:09:22.086Z,2381.00
2023-05-05T08:10:22.193Z,2275.00
2023-05-05T08:11:22.237Z,2275.00
2023-05-05T08:12:22.252Z,2253.00
2023-05-05T08:13:22.332Z,2240.00
2023-05-05T08:14:22.394Z,2233.00
2023-05-05T08:15:22.690Z,2212.00
2023-05-05T08:16:22.593Z,2253.00
2023-05-05T08:17:22.869Z,2261.00
2023-05-05T08:18:22.627Z,2265.00
2023-05-05T08:19:28.615Z,2238.00
2023-05-05T08:20:24.524Z,2230.00
2023-05-05T08:21:22.683Z,2198.00
2023-05-05T08:22:22.650Z,2199.00
2023-05-05T08:23:22.655Z,2220.00
2023-05-05T08:24:22.686Z,2234.00
2023-05-05T08:25:22.602Z,2215.00
2023-05-05T08:26:22.595Z,2155.00
2023-05-05T08:27:22.621Z,2179.00
2023-05-05T08:28:22.671Z,2167.00
2023-05-05T08:29:23.026Z,2188.00
2023-05-05T08:30:22.753Z,2118.00
2023-05-05T08:31:22.874Z,2120.00
2023-05-05T08:32:22.910Z,1948.00
2023-05-05T08:33:22.968Z,1901.00
2023-05-05T08:34:22.976Z,1831.00
2023-05-05T08:35:23.018Z,1798.00
2023-05-05T08:36:23.080Z,1742.00
2023-05-05T08:37:24.003Z,1683.00
2023-05-05T08:38:23.191Z,1688.00
2023-05-05T08:39:23.209Z,1650.00
2023-05-05T08:40:23.286Z,1700.00
2023-05-05T08:41:23.318Z,1791.00
2023-05-05T08:42:36.107Z,1794.00
2023-05-05T08:43:24.302Z,1691.00
2023-05-05T08:44:23.324Z,1630.00
2023-05-05T08:45:23.295Z,1632.00
2023-05-05T08:46:23.532Z,1665.00
2023-05-05T08:47:23.328Z,1767.00
2023-05-05T08:48:23.319Z,1897.00
2023-05-05T08:49:23.379Z,1869.00
2023-05-05T08:50:23.368Z,1904.00
2023-05-05T08:51:23.499Z,1813.00
2023-05-05T08:52:23.513Z,1824.00
2023-05-05T08:53:23.558Z,1903.00
2023-05-05T08:54:24.018Z,1873.00
2023-05-05T08:55:23.521Z,2007.00
2023-05-05T08:56:23.565Z,1783.00
2023-05-05T08:57:23.633Z,1792.00
2023-05-05T08:58:23.659Z,1921.00
2023-05-05T08:59:23.696Z,1979.00
2023-05-05T09:00:23.797Z,2045.00
2023-05-05T09:01:23.987Z,2002.00
2023-05-05T09:02:23.912Z,1898.00
2023-05-05T09:03:23.833Z,1932.00
2023-05-05T09:04:24.035Z,1955.00
2023-05-05T09:05:24.066Z,1979.00
2023-05-05T09:06:23.946Z,1965.00
2023-05-05T09:07:23.947Z,1860.00
2023-05-05T09:08:24.083Z,1833.00
2023-05-05T09:09:24.012Z,1817.00
2023-05-05T09:10:24.594Z,1739.00
2023-05-05T09:11:24.077Z,1778.00
2023-05-05T09:12:24.544Z,1761.00
2023-05-05T09:13:24.135Z,1700.00
2023-05-05T09:14:24.213Z,1717.00
2023-05-05T09:15:24.228Z,1763.00
2023-05-05T09:16:24.284Z,1789.00
2023-05-05T09:17:24.274Z,1692.00
2023-05-05T09:18:24.979Z,1685.00
2023-05-05T09:19:24.493Z,1722.00
2023-05-05T09:20:24.418Z,1582.00
2023-05-05T09:21:24.460Z,1505.00
2023-05-05T09:22:24.507Z,1434.00
2023-05-05T09:23:24.578Z,1604.00
2023-05-05T09:24:24.518Z,1443.00
2023-05-05T09:25:24.609Z,1384.00
2023-05-05T09:26:24.594Z,1446.00
2023-05-05T09:27:25.018Z,1503.00
2023-05-05T09:28:24.671Z,1524.00
2023-05-05T09:29:24.661Z,1506.00
2023-05-05T09:30:24.740Z,1578.00
2023-05-05T09:31:24.804Z,1574.00
2023-05-05T09:32:24.827Z,1763.00
2023-05-05T09:33:24.859Z,1872.00
2023-05-05T09:34:24.896Z,1987.00
2023-05-05T09:35:24.964Z,1883.00
2023-05-05T09:36:25.118Z,1812.00
2023-05-05T09:37:25.024Z,1674.00
2023-05-05T09:38:25.500Z,1470.00
2023-05-05T09:39:25.116Z,1490.00
2023-05-05T09:40:25.143Z,1336.00
2023-05-05T09:41:25.151Z,1234.00
2023-05-05T09:42:25.149Z,1376.00
2023-05-05T09:43:25.226Z,1384.00
2023-05-05T09:44:25.326Z,1184.00
2023-05-05T09:45:25.285Z,1206.00
2023-05-05T09:46:25.449Z,1120.00
2023-05-05T09:47:29.922Z,1016.00
2023-05-05T09:48:25.356Z,1023.00
2023-05-05T09:49:25.387Z,1049.00
2023-05-05T09:50:25.333Z,1041.00
2023-05-05T09:51:25.318Z,1150.00
2023-05-05T09:52:25.322Z,1373.00
2023-05-05T09:53:25.614Z,1482.00
2023-05-05T09:54:25.323Z,1646.00
2023-05-05T09:55:25.291Z,1690.00
2023-05-05T09:56:25.309Z,1687.00
2023-05-05T09:57:25.260Z,1744.00
2023-05-05T09:58:25.353Z,1710.00
2023-05-05T09:59:25.289Z,1557.00
2023-05-05T10:00:25.277Z,1374.00
2023-05-05T10:01:25.310Z,1374.00
2023-05-05T10:02:25.249Z,1427.00
2023-05-05T10:03:25.257Z,1442.00
2023-05-05T10:04:25.310Z,1416.00
2023-05-05T10:05:25.280Z,1604.00
2023-05-05T10:06:25.224Z,1822.00
2023-05-05T10:07:25.230Z,1519.00
2023-05-05T10:08:25.245Z,1424.00
2023-05-05T10:09:25.210Z,1480.00
2023-05-05T10:10:26.938Z,1601.00
2023-05-05T10:11:25.269Z,1546.00
2023-05-05T10:12:25.233Z,1519.00
2023-05-05T10:13:25.218Z,1850.00
2023-05-05T10:14:25.250Z,1817.00
2023-05-05T10:15:25.230Z,1864.00
2023-05-05T10:16:27.346Z,1900.00
2023-05-05T10:17:25.251Z,1903.00
2023-05-05T10:18:25.213Z,1916.00
2023-05-05T10:19:25.164Z,1890.00
2023-05-05T10:20:25.269Z,1857.00
2023-05-05T10:21:25.236Z,1836.00
2023-05-05T10:22:25.251Z,1760.00
2023-05-05T10:23:25.236Z,1892.00
2023-05-05T10:24:25.236Z,1898.00
2023-05-05T10:25:25.246Z,1967.00
2023-05-05T10:26:25.256Z,1945.00
2023-05-05T10:27:25.646Z,1879.00
2023-05-05T10:28:25.228Z,1851.00
2023-05-05T10:29:25.284Z,1760.00
2023-05-05T10:30:25.350Z,1630.00
2023-05-05T10:31:26.730Z,1454.00
2023-05-05T10:32:50.155Z,1555.00
2023-05-05T10:33:31.031Z,1558.00
2023-05-05T10:34:26.492Z,1560.00
2023-05-05T10:35:25.421Z,1583.00
2023-05-05T10:36:25.394Z,1587.00
2023-05-05T10:37:25.531Z,1571.00
2023-05-05T10:38:26.750Z,1699.00
2023-05-05T10:39:25.457Z,1624.00
2023-05-05T10:40:25.422Z,1690.00
2023-05-05T10:41:25.472Z,1663.00
2023-05-05T10:42:25.363Z,1684.00
2023-05-05T10:43:25.391Z,1613.00
2023-05-05T10:44:25.394Z,1637.00
2023-05-05T10:45:25.483Z,1880.00
2023-05-05T10:46:25.483Z,1892.00
2023-05-05T10:47:25.350Z,1917.00
2023-05-05T10:48:25.428Z,1967.00
2023-05-05T10:49:25.420Z,1879.00
2023-05-05T10:50:26.041Z,1863.00
2023-05-05T10:51:38.788Z,1827.00
2023-05-05T10:52:26.358Z,1829.00
2023-05-05T10:53:25.328Z,1849.00
2023-05-05T10:54:25.407Z,1884.00
2023-05-05T10:55:25.551Z,1997.00
2023-05-05T10:56:25.325Z,2117.00
2023-05-05T10:57:25.357Z,2050.00
2023-05-05T10:58:25.387Z,2001.00
2023-05-05T10:59:25.358Z,2119.00
2023-05-05T11:00:25.346Z,2163.00
2023-05-05T11:01:25.369Z,2216.00
2023-05-05T11:02:25.673Z,2147.00
2023-05-05T11:03:25.555Z,2023.00
2023-05-05T11:04:26.453Z,2067.00
2023-05-05T11:05:25.513Z,2010.00
2023-05-05T11:06:25.658Z,2131.00
2023-05-05T11:07:25.761Z,2084.00
2023-05-05T11:08:25.721Z,1927.00
2023-05-05T11:09:25.695Z,1922.00
2023-05-05T11:10:25.767Z,1881.00
2023-05-05T11:11:25.810Z,1923.00
2023-05-05T11:12:25.995Z,1799.00
2023-05-05T11:13:26.090Z,1793.00
2023-05-05T11:14:26.058Z,1781.00
2023-05-05T11:15:26.003Z,1628.00
2023-05-05T11:16:26.097Z,1820.00
2023-05-05T11:17:26.235Z,1619.00
2023-05-05T11:18:26.228Z,1651.00
2023-05-05T11:19:26.541Z,1610.00
2023-05-05T11:20:26.291Z,1678.00
2023-05-05T11:21:26.553Z,1670.00
2023-05-05T11:22:26.429Z,1701.00
2023-05-05T11:23:26.541Z,1640.00
2023-05-05T11:24:26.538Z,1585.00
2023-05-05T11:25:26.643Z,1654.00
2023-05-05T11:26:26.631Z,1554.00
2023-05-05T11:27:26.631Z,1361.00
2023-05-05T11:28:26.699Z,1108.00
2023-05-05T11:29:26.838Z,953.00
2023-05-05T11:30:26.838Z,984.00
2023-05-05T11:31:26.843Z,872.00
2023-05-05T11:32:26.912Z,902.00
2023-05-05T11:33:26.977Z,968.00
2023-05-05T11:34:27.024Z,1159.00
2023-05-05T11:35:27.055Z,1183.00
2023-05-05T11:36:27.104Z,1337.00
2023-05-05T11:37:27.178Z,1434.00
2023-05-05T11:38:27.245Z,1581.00
2023-05-05T11:39:27.291Z,1670.00
2023-05-05T11:40:27.329Z,1705.00
2023-05-05T11:41:27.405Z,1624.00
2023-05-05T11:42:27.474Z,1836.00
2023-05-05T11:43:27.520Z,2006.00
2023-05-05T11:44:27.594Z,2127.00
2023-05-05T11:45:27.639Z,2082.00
2023-05-05T11:46:27.716Z,1809.00
2023-05-05T11:47:27.789Z,1538.00
2023-05-05T11:48:27.875Z,1465.00
2023-05-05T11:49:27.897Z,1442.00
2023-05-05T11:50:28.008Z,1626.00
2023-05-05T11:51:28.007Z,1740.00
2023-05-05T11:52:28.093Z,1788.00
2023-05-05T11:53:28.090Z,1788.00
2023-05-05T11:54:28.143Z,1894.00
2023-05-05T11:55:28.187Z,1993.00
2023-05-05T11:56:28.195Z,2038.00
2023-05-05T11:57:28.236Z,2058.00
2023-05-05T11:58:28.235Z,2087.00
2023-05-05T11:59:28.350Z,2103.00
2023-05-05T12:00:28.293Z,2104.00
2023-05-05T12:01:28.324Z,2122.00
2023-05-05T12:02:28.471Z,2099.00
2023-05-05T12:03:28.411Z,1958.00
2023-05-05T12:04:28.383Z,1871.00
2023-05-05T12:05:28.395Z,2047.00